Terminal Aerodrome Forecast
Issued by NWS

Current Version | Previous Version | Text Only | Print | Product List | Glossary On
Versions: 1 2 3 4 5 6 7 8 9 10 11 12
679
FTUS44 KEPZ 250520
TAFTCS
TAF
KTCS 250520Z 2506/2606 35010G18KT P6SM SCT130 SCT250
     FM250700 31008KT P6SM FEW130 SCT250
     FM251200 01007KT P6SM SCT150
     FM251900 05006KT P6SM SCT090 SCT130 BKN250
     FM260300 18007KT P6SM FEW090 SCT130 SCT250=

USA.gov is the U.S. government's official web portal to all federal, state and local government web resources and services.